Time;durP1;ratioP1;P1;durP2;ratioP2;P2;SDS_P1;SDS_P2;PMS_P1;PMS_P2;Temp;Humidity;BMP_temperature;BMP_pressure;BME280_temperature;BME280_humidity;BME280_pressure;Samples;Min_cycle;Max_cycle;Signal;HPM_P1;HPM_P2
2022/08/26 00:01:03;;;;;;;6.40;5.90;;;;;22.00;98545.00;;;;16723796;28;20240;-48
2022/08/26 00:09:07;;;;;;;6.60;6.00;;;;;21.70;98543.00;;;;16723079;28;20296;-48
2022/08/26 00:17:10;;;;;;;7.30;6.70;;;;;22.30;98540.00;;;;16722265;28;20230;-47
2022/08/26 00:25:15;;;;;;;8.40;7.07;;;;;21.90;98546.00;;;;16723635;28;20187;-49
2022/08/26 00:33:18;;;;;;;7.63;7.03;;;;;22.50;98546.00;;;;16721964;28;20214;-49
2022/08/26 00:41:22;;;;;;;7.30;6.70;;;;;22.40;98551.00;;;;16721307;28;20774;-48
2022/08/26 00:49:28;;;;;;;9.87;7.00;;;;;21.90;98539.00;;;;16721002;28;20226;-48
2022/08/26 00:57:32;;;;;;;7.90;7.20;;;;;21.30;98547.00;;;;16720206;28;20233;-51
2022/08/26 01:05:35;;;;;;;8.60;7.93;;;;;21.50;98557.00;;;;16720332;28;20293;-49
2022/08/26 01:13:39;;;;;;;10.57;8.13;;;;;21.20;98563.00;;;;16719851;28;20300;-49
2022/08/26 01:21:45;;;;;;;9.70;8.80;;;;;21.20;98559.00;;;;16718886;28;20790;-50
2022/08/26 01:29:49;;;;;;;9.33;8.53;;;;;20.90;98558.00;;;;16719463;28;20695;-51
2022/08/26 01:37:54;;;;;;;9.77;8.80;;;;;20.60;98557.00;;;;16718443;28;20279;-50
2022/08/26 01:45:58;;;;;;;9.40;8.50;;;;;20.60;98549.00;;;;16718193;28;20202;-51
2022/08/26 01:54:01;;;;;;;9.93;9.00;;;;;20.70;98558.00;;;;16717914;28;20674;-51
2022/08/26 02:02:05;;;;;;;9.07;8.17;;;;;21.30;98553.00;;;;16717425;28;20278;-51
2022/08/26 02:10:08;;;;;;;9.90;9.00;;;;;21.60;98553.00;;;;16718342;28;20304;-50
2022/08/26 02:18:12;;;;;;;9.20;8.50;;;;;21.30;98557.00;;;;16723384;28;20229;-50
2022/08/26 02:26:16;;;;;;;9.47;8.70;;;;;20.50;98559.00;;;;16729263;28;20612;-51
2022/08/26 02:34:22;;;;;;;9.53;8.60;;;;;20.50;98559.00;;;;16729680;28;20727;-51
2022/08/26 02:42:25;;;;;;;11.30;8.23;;;;;20.30;98560.00;;;;16729276;28;20355;-50
2022/08/26 02:50:28;;;;;;;9.90;9.10;;;;;20.90;98559.00;;;;16726796;28;20305;-51
2022/08/26 02:58:31;;;;;;;11.40;10.40;;;;;21.10;98555.00;;;;16728006;28;20316;-50
2022/08/26 03:06:35;;;;;;;10.77;9.83;;;;;21.20;98548.00;;;;16727395;28;20223;-51
2022/08/26 03:14:37;;;;;;;10.50;9.60;;;;;21.60;98541.00;;;;16726734;28;20558;-51
2022/08/26 03:22:41;;;;;;;11.33;10.17;;;;;21.60;98536.00;;;;16726782;28;20321;-51
2022/08/26 03:30:43;;;;;;;10.40;9.40;;;;;21.90;98525.00;;;;16725019;28;20297;-51
2022/08/26 03:38:47;;;;;;;11.77;10.67;;;;;20.00;98547.00;;;;16725217;28;20784;-51
2022/08/26 03:46:50;;;;;;;12.73;10.60;;;;;19.80;98545.00;;;;16742401;22;20240;-49
2022/08/26 03:54:54;;;;;;;13.33;11.87;;;;;20.90;98551.00;;;;16823119;28;20220;-49
2022/08/26 04:02:56;;;;;;;12.60;11.13;;;;;21.40;98545.00;;;;16739164;28;20246;-49
2022/08/26 04:11:00;;;;;;;11.60;10.63;;;;;21.50;98551.00;;;;16720579;28;20305;-49
2022/08/26 04:19:03;;;;;;;11.37;10.37;;;;;21.40;98540.00;;;;16720167;28;20320;-49
2022/08/26 04:27:07;;;;;;;11.87;10.77;;;;;21.40;98535.00;;;;16719830;28;20538;-48
2022/08/26 04:35:09;;;;;;;11.40;10.30;;;;;21.30;98537.00;;;;16719623;28;20198;-48
2022/08/26 04:43:14;;;;;;;11.70;10.70;;;;;21.30;98535.00;;;;16719139;28;20226;-50
2022/08/26 04:51:16;;;;;;;10.67;9.73;;;;;21.40;98544.00;;;;16719151;28;20219;-50
2022/08/26 04:59:22;;;;;;;11.23;10.13;;;;;21.50;98543.00;;;;16718421;28;20238;-49
2022/08/26 05:07:24;;;;;;;10.13;9.30;;;;;21.40;98550.00;;;;16718332;28;20220;-49
2022/08/26 05:15:28;;;;;;;10.37;9.57;;;;;21.40;98548.00;;;;16717571;28;20194;-48
2022/08/26 05:23:31;;;;;;;11.73;10.67;;;;;21.40;98549.00;;;;16716824;28;20722;-49
2022/08/26 05:31:35;;;;;;;10.40;9.40;;;;;21.80;98547.00;;;;16717125;28;20214;-48
2022/08/26 05:39:38;;;;;;;12.13;11.13;;;;;21.60;98552.00;;;;16717209;28;20234;-48
2022/08/26 05:47:42;;;;;;;10.90;10.10;;;;;21.70;98551.00;;;;16716664;28;20310;-48
2022/08/26 05:55:46;;;;;;;12.23;11.10;;;;;21.70;98564.00;;;;16726405;28;20278;-48
2022/08/26 06:03:52;;;;;;;12.20;10.57;;;;;21.90;98567.00;;;;16728896;28;20300;-49
2022/08/26 06:11:57;;;;;;;11.23;10.33;;;;;21.90;98560.00;;;;16728778;28;20214;-48
2022/08/26 06:20:01;;;;;;;12.00;10.80;;;;;21.90;98567.00;;;;16736624;28;20237;-49
2022/08/26 06:28:04;;;;;;;12.90;11.70;;;;;21.90;98567.00;;;;16728580;28;20305;-48
2022/08/26 06:36:08;;;;;;;11.70;10.70;;;;;22.40;98575.00;;;;16728157;28;20392;-49
2022/08/26 06:44:11;;;;;;;10.63;9.70;;;;;22.40;98577.00;;;;16726939;28;20230;-49
2022/08/26 06:52:16;;;;;;;12.27;11.10;;;;;22.40;98567.00;;;;16725996;28;20639;-49
2022/08/26 07:00:19;;;;;;;11.40;10.40;;;;;22.90;98575.00;;;;16726410;28;20226;-50
2022/08/26 07:08:23;;;;;;;10.33;9.53;;;;;23.30;98575.00;;;;16725752;28;20218;-48
2022/08/26 07:16:26;;;;;;;12.77;11.10;;;;;23.60;98578.00;;;;16725799;28;20186;-48
2022/08/26 07:24:30;;;;;;;11.43;10.20;;;;;24.00;98580.00;;;;16724196;28;20243;-49
2022/08/26 07:32:33;;;;;;;9.90;9.07;;;;;24.30;98578.00;;;;16724163;28;20222;-50
2022/08/26 07:40:37;;;;;;;10.10;9.10;;;;;24.30;98581.00;;;;16723609;28;20226;-49
2022/08/26 07:48:40;;;;;;;10.20;9.20;;;;;24.50;98578.00;;;;16723091;28;20313;-49
2022/08/26 07:56:44;;;;;;;10.50;9.47;;;;;25.00;98585.00;;;;16722991;28;20666;-49
2022/08/26 08:04:47;;;;;;;10.57;8.50;;;;;25.40;98584.00;;;;16723889;28;20667;-49
2022/08/26 08:12:51;;;;;;;11.37;10.37;;;;;25.30;98588.00;;;;16721924;28;20309;-49
2022/08/26 08:20:54;;;;;;;10.63;7.97;;;;;25.60;98584.00;;;;16721964;28;20324;-49
2022/08/26 08:28:58;;;;;;;8.13;7.33;;;;;26.10;98575.00;;;;16721041;28;20217;-49
2022/08/26 08:37:00;;;;;;;7.67;7.03;;;;;26.30;98579.00;;;;16720099;28;20733;-49
2022/08/26 08:45:08;;;;;;;7.80;7.20;;;;;26.70;98566.00;;;;16720005;28;20198;-49
2022/08/26 08:53:13;;;;;;;6.97;6.43;;;;;25.80;98557.00;;;;16718783;28;20378;-48
2022/08/26 09:01:28;;;;;;;7.57;6.97;;;;;25.90;98556.00;;;;16718317;28;20718;-49
2022/08/26 09:09:34;;;;;;;7.30;6.60;;;;;26.50;98557.00;;;;16718820;28;20210;-48
2022/08/26 09:17:46;;;;;;;8.33;7.50;;;;;26.20;98542.00;;;;16717641;28;20835;-49
2022/08/26 09:25:51;;;;;;;9.50;6.20;;;;;26.70;98531.00;;;;16717523;28;20202;-48
2022/08/26 09:34:12;;;;;;;6.23;5.63;;;;;27.80;98530.00;;;;16717209;28;20225;-48
2022/08/26 09:42:24;;;;;;;9.47;6.60;;;;;29.00;98505.00;;;;16716910;28;20222;-48
2022/08/26 09:50:30;;;;;;;9.20;7.53;;;;;29.70;98495.00;;;;16769680;22;20243;-49
2022/08/26 09:58:35;;;;;;;7.50;6.50;;;;;32.60;98465.00;;;;16779135;28;20229;-49
2022/08/26 10:06:41;;;;;;;12.17;8.10;;;;;32.80;98452.00;;;;16717674;28;20194;-49
2022/08/26 10:14:48;;;;;;;11.70;8.00;;;;;32.60;98460.00;;;;16716913;28;20218;-49
2022/08/26 10:22:55;;;;;;;13.67;7.90;;;;;33.70;98443.00;;;;16716892;28;20311;-50
2022/08/26 10:31:03;;;;;;;9.47;7.23;;;;;34.10;98442.00;;;;16716721;28;20220;-48
2022/08/26 10:39:11;;;;;;;13.33;7.40;;;;;32.70;98440.00;;;;16722331;28;20233;-50
2022/08/26 10:47:18;;;;;;;9.57;8.00;;;;;34.10;98434.00;;;;16728977;28;20562;-49
2022/08/26 10:55:27;;;;;;;7.87;6.73;;;;;35.30;98428.00;;;;16727972;28;20205;-50
2022/08/26 11:03:38;;;;;;;7.60;6.87;;;;;34.10;98418.00;;;;16727158;28;20236;-48
2022/08/26 11:11:49;;;;;;;7.83;6.43;;;;;34.90;98405.00;;;;16727067;28;20720;-48
2022/08/26 11:20:04;;;;;;;7.27;6.57;;;;;34.10;98411.00;;;;16727269;28;20222;-50
2022/08/26 11:28:08;;;;;;;8.93;7.83;;;;;31.90;98408.00;;;;16726500;28;20217;-48
2022/08/26 11:36:11;;;;;;;10.40;8.10;;;;;32.30;98403.00;;;;16726979;28;20201;-48
2022/08/26 11:44:21;;;;;;;9.73;7.60;;;;;34.40;98401.00;;;;16725571;28;20234;-49
2022/08/26 11:52:24;;;;;;;9.50;7.80;;;;;32.40;98392.00;;;;16723249;28;20234;-50
2022/08/26 12:00:30;;;;;;;10.23;7.93;;;;;33.30;98405.00;;;;16723777;28;20221;-49
2022/08/26 12:08:33;;;;;;;10.47;7.67;;;;;34.20;98407.00;;;;16722855;28;20222;-50
2022/08/26 12:16:39;;;;;;;9.30;7.03;;;;;33.30;98393.00;;;;16712180;28;20198;-50
2022/08/26 12:24:43;;;;;;;9.17;6.87;;;;;36.10;98397.00;;;;16718488;28;20340;-49
2022/08/26 12:32:49;;;;;;;9.30;7.63;;;;;35.60;98393.00;;;;16718557;28;20229;-50
2022/08/26 12:40:52;;;;;;;13.90;9.10;;;;;34.50;98385.00;;;;16721880;28;20225;-49
2022/08/26 12:49:00;;;;;;;13.03;7.83;;;;;34.40;98377.00;;;;16720794;28;20218;-49
2022/08/26 12:57:10;;;;;;;11.17;8.10;;;;;34.40;98376.00;;;;16718578;28;20198;-50
2022/08/26 13:05:21;;;;;;;16.40;9.53;;;;;36.10;98363.00;;;;16719830;28;20226;-49
2022/08/26 13:13:24;;;;;;;8.73;7.40;;;;;36.40;98353.00;;;;16719725;28;20542;-49
2022/08/26 13:21:30;;;;;;;10.27;7.43;;;;;36.00;98344.00;;;;16720060;28;20226;-48
2022/08/26 13:29:32;;;;;;;8.70;6.57;;;;;37.10;98327.00;;;;16718134;28;20713;-50
2022/08/26 13:37:36;;;;;;;9.10;7.63;;;;;37.00;98327.00;;;;16719059;28;20205;-49
2022/08/26 13:45:39;;;;;;;8.87;6.40;;;;;37.00;98331.00;;;;16718167;28;20644;-49
2022/08/26 13:53:43;;;;;;;9.13;6.57;;;;;35.40;98327.00;;;;16717762;28;20224;-50
2022/08/26 14:01:45;;;;;;;8.63;7.73;;;;;33.50;98336.00;;;;16718023;28;20221;-49
2022/08/26 14:09:49;;;;;;;11.40;7.73;;;;;33.80;98324.00;;;;16717815;28;20245;-49
2022/08/26 14:17:52;;;;;;;13.47;9.90;;;;;33.20;98319.00;;;;16730996;28;20720;-50
2022/08/26 14:25:55;;;;;;;13.90;9.90;;;;;32.50;98324.00;;;;16731128;28;20202;-49
2022/08/26 14:33:59;;;;;;;13.30;8.97;;;;;32.50;98325.00;;;;16729384;28;20206;-49
2022/08/26 14:42:03;;;;;;;11.53;8.27;;;;;33.30;98337.00;;;;16728755;28;20221;-49
2022/08/26 14:50:06;;;;;;;11.63;8.00;;;;;33.10;98336.00;;;;16728814;28;20222;-50
2022/08/26 14:58:10;;;;;;;9.53;7.07;;;;;32.30;98323.00;;;;16727703;28;20729;-49
2022/08/26 15:06:13;;;;;;;10.07;7.70;;;;;32.70;98307.00;;;;16728164;28;20225;-50
2022/08/26 15:14:17;;;;;;;8.37;7.53;;;;;32.60;98315.00;;;;16726528;28;20210;-50
2022/08/26 15:22:19;;;;;;;12.90;8.30;;;;;32.00;98338.00;;;;16727076;28;20671;-50
2022/08/26 15:30:23;;;;;;;11.33;6.93;;;;;30.10;98344.00;;;;16726956;28;20206;-49
2022/08/26 15:38:28;;;;;;;10.10;7.00;;;;;29.60;98349.00;;;;16726361;28;20220;-49
2022/08/26 15:46:32;;;;;;;10.67;6.70;;;;;28.90;98328.00;;;;16725597;28;20198;-49
2022/08/26 15:54:34;;;;;;;9.43;6.50;;;;;28.40;98328.00;;;;16747058;22;20718;-50
2022/08/26 16:02:38;;;;;;;9.30;7.20;;;;;27.70;98358.00;;;;16683782;28;20226;-50
2022/08/26 16:10:44;;;;;;;6.90;6.17;;;;;27.20;98394.00;;;;16657925;28;20214;-50
2022/08/26 16:18:48;;;;;;;10.67;5.80;;;;;26.10;98416.00;;;;16657721;28;20587;-49
2022/08/26 16:26:50;;;;;;;5.93;5.23;;;;;25.30;98425.00;;;;16657029;28;20213;-49
2022/08/26 16:34:54;;;;;;;5.53;5.03;;;;;24.60;98439.00;;;;16656087;28;20707;-50
2022/08/26 16:42:57;;;;;;;4.97;4.50;;;;;24.60;98459.00;;;;16655324;28;20590;-48
2022/08/26 16:51:01;;;;;;;5.73;5.17;;;;;24.50;98479.00;;;;16653369;28;20321;-49
2022/08/26 16:59:04;;;;;;;8.17;6.20;;;;;24.00;98467.00;;;;16654514;28;20221;-50
2022/08/26 17:07:07;;;;;;;8.33;7.20;;;;;24.50;98449.00;;;;16656803;28;20214;-50
2022/08/26 17:15:11;;;;;;;6.97;6.37;;;;;23.70;98444.00;;;;16653566;28;20214;-50
2022/08/26 17:23:15;;;;;;;6.40;5.40;;;;;23.30;98439.00;;;;16653574;28;20725;-49
2022/08/26 17:31:18;;;;;;;4.83;4.33;;;;;22.60;98437.00;;;;16653442;28;20210;-47
2022/08/26 17:39:21;;;;;;;3.97;3.67;;;;;22.00;98459.00;;;;16653075;28;20230;-48
2022/08/26 17:47:24;;;;;;;3.67;3.37;;;;;22.20;98467.00;;;;16652451;28;20733;-47
2022/08/26 17:55:28;;;;;;;4.20;3.80;;;;;21.90;98475.00;;;;16652983;28;20746;-48
2022/08/26 18:03:30;;;;;;;6.93;4.37;;;;;21.20;98494.00;;;;16653078;28;20222;-47
2022/08/26 18:11:34;;;;;;;4.30;3.90;;;;;21.20;98481.00;;;;16653234;28;20217;-48
2022/08/26 18:19:36;;;;;;;5.40;4.90;;;;;21.50;98484.00;;;;16662128;28;20695;-48
2022/08/26 18:27:40;;;;;;;6.17;5.57;;;;;21.70;98479.00;;;;16651654;28;20290;-48
2022/08/26 18:35:44;;;;;;;8.20;7.50;;;;;21.90;98537.00;;;;16679937;28;20202;-48
2022/08/26 18:43:49;;;;;;;9.93;9.10;;;;;22.30;98613.00;;;;16717192;28;20308;-48
2022/08/26 18:51:51;;;;;;;8.97;8.03;;;;;22.80;98643.00;;;;16716015;28;20233;-48
2022/08/26 18:59:55;;;;;;;10.80;9.80;;;;;22.50;98586.00;;;;16721378;28;20224;-48
2022/08/26 19:07:57;;;;;;;9.80;9.00;;;;;22.10;98596.00;;;;16728017;28;20194;-48
2022/08/26 19:16:01;;;;;;;10.00;8.93;;;;;21.40;98591.00;;;;16727631;28;20185;-48
2022/08/26 19:24:08;;;;;;;10.10;9.13;;;;;21.30;98593.00;;;;16720582;28;20600;-48
2022/08/26 19:32:11;;;;;;;9.67;8.87;;;;;21.90;98579.00;;;;16660137;28;20633;-48
2022/08/26 19:40:14;;;;;;;9.67;8.83;;;;;21.20;98600.00;;;;16661247;28;20222;-48
2022/08/26 19:48:18;;;;;;;10.53;9.47;;;;;20.70;98604.00;;;;16659253;28;20230;-48
2022/08/26 19:56:21;;;;;;;10.43;9.53;;;;;20.80;98616.00;;;;16661418;28;20249;-48
2022/08/26 20:04:25;;;;;;;11.03;10.03;;;;;20.70;98616.00;;;;16659426;28;20222;-48
2022/08/26 20:12:30;;;;;;;10.77;9.67;;;;;20.70;98628.00;;;;16656929;28;20922;-48
2022/08/26 20:28:55;;;;;;;13.47;12.27;;;;;20.60;98614.00;;;;16657219;28;20222;-49
2022/08/26 20:36:59;;;;;;;12.10;11.00;;;;;20.80;98604.00;;;;16656171;28;20693;-48
2022/08/26 20:45:02;;;;;;;11.70;10.60;;;;;20.40;98610.00;;;;16656465;28;20229;-48
2022/08/26 20:53:07;;;;;;;14.50;13.00;;;;;20.20;98595.00;;;;16656004;28;20308;-48
2022/08/26 21:01:18;;;;;;;13.57;12.37;;;;;20.70;98610.00;;;;16654855;28;20210;-47
2022/08/26 21:09:23;;;;;;;13.60;12.20;;;;;20.30;98629.00;;;;16654799;28;20215;-48
2022/08/26 21:17:25;;;;;;;13.57;12.37;;;;;20.30;98622.00;;;;16654422;28;20195;-48
2022/08/26 21:25:29;;;;;;;13.37;12.17;;;;;20.20;98618.00;;;;16653264;28;20249;-48
2022/08/26 21:33:32;;;;;;;12.50;11.43;;;;;20.30;98608.00;;;;16652968;28;20245;-48
2022/08/26 21:41:36;;;;;;;12.47;11.37;;;;;20.10;98623.00;;;;16653202;28;20561;-48
2022/08/26 21:49:38;;;;;;;12.60;11.40;;;;;20.30;98631.00;;;;16695206;22;20315;-49
2022/08/26 21:57:42;;;;;;;12.50;11.30;;;;;20.00;98639.00;;;;16780613;28;20197;-48
2022/08/26 22:05:45;;;;;;;13.20;11.83;;;;;20.10;98634.00;;;;16721564;28;20796;-48
2022/08/26 22:13:49;;;;;;;12.13;11.10;;;;;20.30;98625.00;;;;16716147;28;20214;-49
2022/08/26 22:21:54;;;;;;;14.47;13.00;;;;;19.90;98619.00;;;;16715715;28;20210;-47
2022/08/26 22:29:58;;;;;;;13.13;11.93;;;;;19.90;98629.00;;;;16718013;28;20237;-49
2022/08/26 22:38:00;;;;;;;12.77;11.40;;;;;20.00;98638.00;;;;16728347;28;20202;-48
2022/08/26 22:46:08;;;;;;;13.30;12.10;;;;;20.10;98643.00;;;;16728786;28;20222;-49
2022/08/26 22:54:10;;;;;;;13.23;12.03;;;;;20.00;98662.00;;;;16727683;28;20222;-48
2022/08/26 23:02:14;;;;;;;12.57;11.27;;;;;20.00;98670.00;;;;16726353;28;20234;-47
2022/08/26 23:10:17;;;;;;;13.17;11.97;;;;;20.30;98656.00;;;;16726669;28;20577;-48
2022/08/26 23:18:20;;;;;;;14.23;12.97;;;;;20.40;98656.00;;;;16725869;28;20681;-49
2022/08/26 23:26:23;;;;;;;13.30;12.07;;;;;20.40;98634.00;;;;16726034;28;20232;-49
2022/08/26 23:42:46;;;;;;;15.17;12.57;;;;;20.60;98625.00;;;;16721665;28;20233;-49
2022/08/26 23:59:10;;;;;;;13.70;12.50;;;;;21.00;98622.00;;;;16722643;28;20224;-49
